createdAt,value
2019-05-16T00:03:33.191Z,99775.13
2019-05-16T00:07:53.522Z,99777.63
2019-05-16T00:12:14.515Z,99781.25
2019-05-16T00:16:34.878Z,99775.77
2019-05-16T00:20:55.179Z,99767.07
2019-05-16T00:25:17.947Z,99767.61
2019-05-16T00:29:38.488Z,99758.48
2019-05-16T00:33:59.821Z,99765.00
2019-05-16T00:38:20.529Z,99750.69
2019-05-16T00:42:42.210Z,99753.59
2019-05-16T00:47:02.805Z,99749.19
2019-05-16T00:51:23.643Z,99747.17
2019-05-16T00:55:44.945Z,99740.25
2019-05-16T01:00:08.221Z,99729.89
2019-05-16T01:04:28.915Z,99730.39
2019-05-16T01:08:49.720Z,99721.70
2019-05-16T01:13:10.106Z,99713.56
2019-05-16T01:17:30.991Z,99720.08
2019-05-16T01:21:52.382Z,99713.09
2019-05-16T01:26:13.268Z,99707.04
2019-05-16T01:30:33.987Z,99707.33
2019-05-16T01:34:54.403Z,99707.03
2019-05-16T01:39:18.263Z,99700.17
2019-05-16T01:43:38.798Z,99689.25
2019-05-16T01:47:59.662Z,99688.27
2019-05-16T01:52:20.040Z,99686.63
2019-05-16T01:56:40.847Z,99682.92
2019-05-16T02:01:11.869Z,99679.33
2019-05-16T02:05:23.601Z,99677.20
2019-05-16T02:09:44.070Z,99679.42
2019-05-16T02:14:04.358Z,99665.58
2019-05-16T02:18:24.577Z,99671.48
2019-05-16T02:22:45.217Z,99663.02
2019-05-16T02:27:09.338Z,99660.51
2019-05-16T02:31:31.366Z,99650.47
2019-05-16T02:35:55.125Z,99650.97
2019-05-16T02:40:20.994Z,99649.78
2019-05-16T02:44:41.494Z,99651.39
2019-05-16T02:49:01.890Z,99643.70
2019-05-16T02:53:22.899Z,99636.05
2019-05-16T02:57:43.069Z,99634.23
2019-05-16T03:02:03.188Z,99633.44
2019-05-16T03:06:24.770Z,99629.64
2019-05-16T03:10:46.087Z,99623.00
2019-05-16T03:15:10.683Z,99624.44
2019-05-16T03:19:34.270Z,99614.43
2019-05-16T03:23:54.438Z,99609.88
2019-05-16T03:28:15.511Z,99605.94
2019-05-16T03:32:35.955Z,99603.99
2019-05-16T03:36:56.069Z,99600.03
2019-05-16T03:41:17.861Z,99597.69
2019-05-16T03:45:41.715Z,99595.94
2019-05-16T03:50:00.988Z,99591.70
2019-05-16T03:54:21.744Z,99596.56
2019-05-16T03:58:42.145Z,99596.58
2019-05-16T04:03:02.323Z,99595.00
2019-05-16T04:07:23.160Z,99587.52
2019-05-16T04:11:43.733Z,99581.22
2019-05-16T04:16:04.013Z,99591.20
2019-05-16T04:20:24.503Z,99583.16
2019-05-16T04:24:44.769Z,99590.33
2019-05-16T04:29:05.271Z,99587.06
2019-05-16T04:33:25.992Z,99582.86
2019-05-16T04:37:46.332Z,99584.69
2019-05-16T04:42:07.248Z,99585.76
2019-05-16T04:46:31.105Z,99579.77
2019-05-16T04:50:51.592Z,99584.31
2019-05-16T04:55:12.512Z,99585.06
2019-05-16T04:59:33.050Z,99571.61
2019-05-16T05:04:06.311Z,99571.61
2019-05-16T05:08:15.802Z,99571.75
2019-05-16T05:12:36.650Z,99565.47
2019-05-16T05:16:57.834Z,99563.22
2019-05-16T05:21:20.912Z,99559.31
2019-05-16T05:25:41.514Z,99558.87
2019-05-16T05:30:03.532Z,99557.22
2019-05-16T05:34:24.899Z,99557.08
2019-05-16T05:38:48.362Z,99548.61
2019-05-16T05:43:10.605Z,99549.19
2019-05-16T05:47:31.330Z,99550.42
2019-05-16T05:51:51.787Z,99550.48
2019-05-16T05:56:12.648Z,99552.41
2019-05-16T06:00:32.986Z,99558.37
2019-05-16T06:04:54.274Z,99562.08
2019-05-16T06:09:26.182Z,99561.98
2019-05-16T06:13:37.440Z,99557.24
2019-05-16T06:18:00.072Z,99553.26
2019-05-16T06:22:23.561Z,99559.86
2019-05-16T06:26:43.583Z,99555.41
2019-05-16T06:31:04.298Z,99554.60
2019-05-16T06:35:25.054Z,99548.25
2019-05-16T06:39:45.903Z,99548.25
2019-05-16T06:44:07.530Z,99556.73
2019-05-16T06:48:30.353Z,99552.58
2019-05-16T06:52:50.916Z,99554.20
2019-05-16T06:57:11.250Z,99541.70
2019-05-16T07:01:32.093Z,99540.28
2019-05-16T07:05:52.575Z,99535.47
2019-05-16T07:10:13.532Z,99531.23
2019-05-16T07:14:34.209Z,99523.82
2019-05-16T07:18:54.582Z,99531.44
2019-05-16T07:23:15.205Z,99520.80
2019-05-16T07:27:36.920Z,99514.08
2019-05-16T07:31:57.830Z,99515.19
2019-05-16T07:36:20.907Z,99511.66
2019-05-16T07:40:42.276Z,99509.39
2019-05-16T07:45:04.542Z,99513.03
2019-05-16T07:49:24.945Z,99503.08
2019-05-16T07:53:45.319Z,99497.41
2019-05-16T07:58:06.365Z,99488.39
2019-05-16T08:02:26.812Z,99494.20
2019-05-16T08:06:47.439Z,99491.97
2019-05-16T08:11:07.865Z,99484.68
2019-05-16T08:15:30.411Z,99490.17
2019-05-16T08:19:51.682Z,99487.95
2019-05-16T08:24:14.970Z,99488.39
2019-05-16T08:28:34.989Z,99476.84
2019-05-16T08:32:55.878Z,99480.02
2019-05-16T08:37:33.971Z,99467.57
2019-05-16T08:41:42.458Z,99473.94
2019-05-16T08:46:04.146Z,99458.06
2019-05-16T08:50:24.485Z,99453.69
2019-05-16T08:54:45.178Z,99453.69
2019-05-16T08:59:06.107Z,99451.97
2019-05-16T09:03:32.076Z,99452.70
2019-05-16T09:07:50.549Z,99459.40
2019-05-16T09:12:11.788Z,99457.34
2019-05-16T09:16:31.961Z,99453.61
2019-05-16T09:20:52.140Z,99428.39
2019-05-16T09:25:13.363Z,99428.39
2019-05-16T09:29:36.657Z,99428.70
2019-05-16T09:33:57.138Z,99428.77
2019-05-16T09:38:23.164Z,99410.88
2019-05-16T09:42:40.468Z,99415.87
2019-05-16T09:47:00.962Z,99409.53
2019-05-16T09:51:21.557Z,99400.28
2019-05-16T09:55:42.060Z,99402.50
2019-05-16T10:00:06.798Z,99350.72
2019-05-16T10:04:27.269Z,99385.52
2019-05-16T10:08:48.345Z,99385.23
2019-05-16T10:13:08.978Z,99389.52
2019-05-16T10:17:29.612Z,99385.88
2019-05-16T10:21:51.910Z,99377.99
2019-05-16T10:26:12.799Z,99363.32
2019-05-16T10:30:34.801Z,99364.98
2019-05-16T10:34:57.265Z,99370.34
2019-05-16T10:39:18.431Z,99349.21
2019-05-16T10:43:39.006Z,99342.00
2019-05-16T10:48:00.094Z,99341.03
2019-05-16T10:52:20.637Z,99341.03
2019-05-16T10:56:41.645Z,99333.70
2019-05-16T11:01:19.498Z,99322.69
2019-05-16T11:05:33.124Z,99312.15
2019-05-16T11:09:59.334Z,99305.75
2019-05-16T11:14:17.361Z,99302.38
2019-05-16T11:18:38.348Z,99292.13
2019-05-16T11:22:59.182Z,99294.51
2019-05-16T11:27:19.504Z,99289.89
2019-05-16T11:31:40.036Z,99288.73
2019-05-16T11:36:00.567Z,99294.67
2019-05-16T11:40:21.745Z,99292.25
2019-05-16T11:44:42.016Z,99295.08
2019-05-16T11:49:03.231Z,99291.06
2019-05-16T11:53:23.557Z,99285.20
2019-05-16T11:57:47.635Z,99277.05
2019-05-16T12:02:07.505Z,99267.48
2019-05-16T12:06:28.062Z,99279.23
2019-05-16T12:10:48.814Z,99266.38
2019-05-16T12:15:09.852Z,99261.59
2019-05-16T12:19:34.584Z,99248.47
2019-05-16T12:23:52.717Z,99236.86
2019-05-16T12:28:13.565Z,99235.88
2019-05-16T12:32:33.979Z,99238.63
2019-05-16T12:36:56.577Z,99224.59
2019-05-16T12:41:17.230Z,99230.52
2019-05-16T12:45:38.708Z,99215.77
2019-05-16T12:50:00.026Z,99208.86
2019-05-16T12:54:20.509Z,99211.64
2019-05-16T12:58:42.227Z,99202.90
2019-05-16T13:03:03.967Z,99198.51
2019-05-16T13:07:26.780Z,99196.45
2019-05-16T13:11:47.366Z,99187.02
2019-05-16T13:16:08.018Z,99187.16
2019-05-16T13:20:28.565Z,99175.70
2019-05-16T13:24:48.927Z,99171.75
2019-05-16T13:29:09.326Z,99171.45
2019-05-16T13:33:29.922Z,99169.25
2019-05-16T13:37:50.471Z,99165.06
2019-05-16T13:42:11.452Z,99162.09
2019-05-16T13:46:32.743Z,99157.46
2019-05-16T13:51:08.417Z,99163.92
2019-05-16T13:55:16.984Z,99165.73
2019-05-16T13:59:38.992Z,99159.52
2019-05-16T14:04:00.237Z,99151.62
2019-05-16T14:08:20.578Z,99147.22
2019-05-16T14:12:41.215Z,99145.55
2019-05-16T14:17:02.359Z,99135.74
2019-05-16T14:21:23.525Z,99129.80
2019-05-16T14:25:47.689Z,99128.03
2019-05-16T14:30:07.968Z,99131.54
2019-05-16T14:34:29.010Z,99125.30
2019-05-16T14:38:49.332Z,99126.58
2019-05-16T14:43:10.515Z,99141.10
2019-05-16T14:47:31.519Z,99129.64
2019-05-16T14:51:52.070Z,99124.25
2019-05-16T14:56:12.473Z,99117.39
2019-05-16T15:00:33.429Z,99113.30
2019-05-16T15:04:56.827Z,99113.30
2019-05-16T15:09:17.203Z,99109.37
2019-05-16T15:13:38.418Z,99101.30
2019-05-16T15:18:00.207Z,99099.32
2019-05-16T15:22:21.241Z,99099.71
2019-05-16T15:26:41.877Z,99094.18
2019-05-16T15:31:02.421Z,99089.84
2019-05-16T15:35:23.103Z,99093.41
2019-05-16T15:39:43.657Z,99089.82
2019-05-16T15:44:07.571Z,99088.28
2019-05-16T15:48:27.449Z,99079.80
2019-05-16T15:52:48.850Z,99079.80
2019-05-16T15:57:09.683Z,99066.00
2019-05-16T16:01:30.063Z,99065.80
2019-05-16T16:05:50.634Z,99053.58
2019-05-16T16:10:11.572Z,99035.27
2019-05-16T16:14:32.256Z,99034.47
2019-05-16T16:18:53.097Z,99033.87
2019-05-16T16:23:13.663Z,99025.77
2019-05-16T16:27:34.366Z,99023.00
2019-05-16T16:31:56.864Z,99007.60
2019-05-16T16:36:18.149Z,99007.60
2019-05-16T16:40:38.514Z,99012.32
2019-05-16T16:44:58.750Z,99006.34
2019-05-16T16:49:19.259Z,99000.67
2019-05-16T16:53:39.942Z,99004.84
2019-05-16T16:58:00.580Z,99007.03
2019-05-16T17:02:21.805Z,98995.57
2019-05-16T17:06:42.592Z,99000.47
2019-05-16T17:11:02.971Z,98989.23
2019-05-16T17:15:28.343Z,98989.23
2019-05-16T17:19:49.239Z,98985.34
2019-05-16T17:24:09.603Z,98981.94
2019-05-16T17:28:30.786Z,98966.63
2019-05-16T17:32:51.876Z,98966.63
2019-05-16T17:41:54.935Z,98961.34
2019-05-16T17:46:15.042Z,98955.03
2019-05-16T17:50:37.498Z,98954.28
2019-05-16T17:54:57.958Z,98952.71
2019-05-16T17:59:19.392Z,98955.27
2019-05-16T18:03:40.517Z,98954.47
2019-05-16T18:08:01.569Z,98953.02
2019-05-16T18:12:22.321Z,98951.72
2019-05-16T18:16:53.585Z,98949.75
2019-05-16T18:21:06.886Z,98944.44
2019-05-16T18:25:28.691Z,98948.52
2019-05-16T18:29:50.420Z,98944.56
2019-05-16T18:34:10.669Z,98939.44
2019-05-16T18:38:32.622Z,98936.52
2019-05-16T18:42:52.882Z,98936.48
2019-05-16T18:47:14.064Z,98929.41
2019-05-16T18:51:36.992Z,98929.41
2019-05-16T18:55:57.547Z,98936.03
2019-05-16T19:00:18.561Z,98926.78
2019-05-16T19:04:39.232Z,98928.56
2019-05-16T19:09:00.051Z,98925.20
2019-05-16T19:13:20.772Z,98917.30
2019-05-16T19:17:41.619Z,98917.05
2019-05-16T19:22:02.507Z,98918.23
2019-05-16T19:26:23.018Z,98916.21
2019-05-16T19:30:43.499Z,98909.72
2019-05-16T19:35:04.102Z,98912.30
2019-05-16T19:39:26.025Z,98912.30
2019-05-16T19:43:46.745Z,98907.53
2019-05-16T19:48:07.645Z,98909.47
2019-05-16T19:52:28.152Z,98906.61
2019-05-16T19:56:49.403Z,98913.48
2019-05-16T20:01:10.428Z,98910.67
2019-05-16T20:05:37.435Z,98905.73
2019-05-16T20:10:00.907Z,98910.45
2019-05-16T20:14:22.307Z,98908.22
2019-05-16T20:18:46.539Z,98903.75
2019-05-16T20:23:07.211Z,98902.33
2019-05-16T20:27:28.952Z,98911.16
2019-05-16T20:31:49.871Z,98900.33
2019-05-16T20:36:12.057Z,98900.03
2019-05-16T20:40:33.717Z,98895.53
2019-05-16T20:44:57.339Z,98892.27
2019-05-16T20:49:17.089Z,98887.35
2019-05-16T20:53:37.745Z,98878.33
2019-05-16T20:57:58.409Z,98868.47
2019-05-16T21:02:18.479Z,98868.47
2019-05-16T21:06:39.588Z,98874.77
2019-05-16T21:11:01.591Z,98878.89
2019-05-16T21:15:22.874Z,98876.35
2019-05-16T21:19:43.902Z,98874.05
2019-05-16T21:24:06.985Z,98873.00
2019-05-16T21:32:11.250Z,98854.50
2019-05-16T21:36:32.687Z,98853.45
2019-05-16T21:40:53.475Z,98854.23
2019-05-16T21:45:15.057Z,98850.22
2019-05-16T21:49:36.987Z,98842.36
2019-05-16T21:53:57.685Z,98838.01
2019-05-16T21:58:18.349Z,98835.59
2019-05-16T22:02:39.074Z,98833.47
2019-05-16T22:06:59.913Z,98817.12
2019-05-16T22:11:20.647Z,98820.63
2019-05-16T22:15:42.154Z,98821.98
2019-05-16T22:20:03.066Z,98818.58
2019-05-16T22:24:23.765Z,98816.08
2019-05-16T22:28:46.725Z,98805.84
2019-05-16T22:33:09.237Z,98813.34
2019-05-16T22:37:29.935Z,98813.52
2019-05-16T22:41:50.967Z,98803.73
2019-05-16T22:46:11.658Z,98804.13
2019-05-16T22:50:32.996Z,98800.92
2019-05-16T22:54:53.821Z,98796.31
2019-05-16T22:59:16.632Z,98792.87
2019-05-16T23:03:37.946Z,98786.49
2019-05-16T23:08:05.099Z,98788.48
2019-05-16T23:12:21.222Z,98781.22
2019-05-16T23:16:41.652Z,98781.22
2019-05-16T23:21:02.734Z,98779.30
2019-05-16T23:25:23.391Z,98775.17
2019-05-16T23:29:44.239Z,98763.59
2019-05-16T23:34:07.159Z,98757.70
2019-05-16T23:38:27.786Z,98758.52
2019-05-16T23:42:48.440Z,98753.19
2019-05-16T23:47:09.274Z,98746.66
2019-05-16T23:51:29.736Z,98732.67
2019-05-16T23:55:50.599Z,98722.30
